sensor_id;sensor_type;location;lat;lon;timestamp;temperature;humidity
39325;DHT22;25037;49.488;9.900;2024-02-16T00:01:16;10.70;70.30
39325;DHT22;25037;49.488;9.900;2024-02-16T00:03:44;10.70;70.30
39325;DHT22;25037;49.488;9.900;2024-02-16T00:06:12;10.70;70.20
39325;DHT22;25037;49.488;9.900;2024-02-16T00:08:39;10.80;70.20
39325;DHT22;25037;49.488;9.900;2024-02-16T00:11:07;10.80;70.10
39325;DHT22;25037;49.488;9.900;2024-02-16T00:13:34;10.80;70.20
39325;DHT22;25037;49.488;9.900;2024-02-16T00:16:01;10.70;70.20
39325;DHT22;25037;49.488;9.900;2024-02-16T00:18:28;10.70;70.20
39325;DHT22;25037;49.488;9.900;2024-02-16T00:20:56;10.70;70.30
39325;DHT22;25037;49.488;9.900;2024-02-16T00:23:23;10.70;70.40
39325;DHT22;25037;49.488;9.900;2024-02-16T00:25:52;10.70;70.40
39325;DHT22;25037;49.488;9.900;2024-02-16T00:28:19;10.60;70.50
39325;DHT22;25037;49.488;9.900;2024-02-16T00:30:46;10.60;70.50
39325;DHT22;25037;49.488;9.900;2024-02-16T00:33:14;10.60;70.60
39325;DHT22;25037;49.488;9.900;2024-02-16T00:35:41;10.70;70.60
39325;DHT22;25037;49.488;9.900;2024-02-16T00:38:08;10.60;70.50
39325;DHT22;25037;49.488;9.900;2024-02-16T00:40:35;10.60;70.50
39325;DHT22;25037;49.488;9.900;2024-02-16T00:43:03;10.60;70.50
39325;DHT22;25037;49.488;9.900;2024-02-16T00:45:31;10.60;70.60
39325;DHT22;25037;49.488;9.900;2024-02-16T00:47:58;10.70;70.50
39325;DHT22;25037;49.488;9.900;2024-02-16T00:50:26;10.70;70.60
39325;DHT22;25037;49.488;9.900;2024-02-16T00:52:53;10.70;70.60
39325;DHT22;25037;49.488;9.900;2024-02-16T00:55:21;10.70;70.60
39325;DHT22;25037;49.488;9.900;2024-02-16T00:57:48;10.70;70.70
39325;DHT22;25037;49.488;9.900;2024-02-16T01:00:15;10.70;70.70
39325;DHT22;25037;49.488;9.900;2024-02-16T01:02:43;10.70;70.70
39325;DHT22;25037;49.488;9.900;2024-02-16T01:05:10;10.70;70.70
39325;DHT22;25037;49.488;9.900;2024-02-16T01:07:38;10.70;70.80
39325;DHT22;25037;49.488;9.900;2024-02-16T01:10:07;10.60;70.80
39325;DHT22;25037;49.488;9.900;2024-02-16T01:12:34;10.60;70.80
39325;DHT22;25037;49.488;9.900;2024-02-16T01:15:02;10.60;70.90
39325;DHT22;25037;49.488;9.900;2024-02-16T01:17:30;10.60;70.90
39325;DHT22;25037;49.488;9.900;2024-02-16T01:19:59;10.60;70.80
39325;DHT22;25037;49.488;9.900;2024-02-16T01:22:27;10.60;70.90
39325;DHT22;25037;49.488;9.900;2024-02-16T01:24:56;10.50;70.90
39325;DHT22;25037;49.488;9.900;2024-02-16T01:27:24;10.50;70.90
39325;DHT22;25037;49.488;9.900;2024-02-16T01:29:51;10.50;70.90
39325;DHT22;25037;49.488;9.900;2024-02-16T01:32:18;10.50;71.00
39325;DHT22;25037;49.488;9.900;2024-02-16T01:34:46;10.50;70.90
39325;DHT22;25037;49.488;9.900;2024-02-16T01:37:17;10.50;71.00
39325;DHT22;25037;49.488;9.900;2024-02-16T01:39:44;10.50;70.90
39325;DHT22;25037;49.488;9.900;2024-02-16T01:42:12;10.50;71.00
39325;DHT22;25037;49.488;9.900;2024-02-16T01:44:39;10.50;71.00
39325;DHT22;25037;49.488;9.900;2024-02-16T01:47:06;10.50;71.00
39325;DHT22;25037;49.488;9.900;2024-02-16T01:49:34;10.60;70.90
39325;DHT22;25037;49.488;9.900;2024-02-16T01:52:02;10.60;70.80
39325;DHT22;25037;49.488;9.900;2024-02-16T01:54:30;10.70;70.70
39325;DHT22;25037;49.488;9.900;2024-02-16T01:56:59;10.60;70.70
39325;DHT22;25037;49.488;9.900;2024-02-16T01:59:27;10.60;70.60
39325;DHT22;25037;49.488;9.900;2024-02-16T02:01:56;10.60;70.60
39325;DHT22;25037;49.488;9.900;2024-02-16T02:04:24;10.60;70.60
39325;DHT22;25037;49.488;9.900;2024-02-16T02:06:52;10.60;70.70
39325;DHT22;25037;49.488;9.900;2024-02-16T02:09:19;10.60;70.70
39325;DHT22;25037;49.488;9.900;2024-02-16T02:11:46;10.60;70.70
39325;DHT22;25037;49.488;9.900;2024-02-16T02:14:14;10.60;70.60
39325;DHT22;25037;49.488;9.900;2024-02-16T02:16:42;10.60;70.50
39325;DHT22;25037;49.488;9.900;2024-02-16T02:19:21;10.60;70.50
39325;DHT22;25037;49.488;9.900;2024-02-16T02:21:48;10.60;70.50
39325;DHT22;25037;49.488;9.900;2024-02-16T02:24:17;10.60;70.50
39325;DHT22;25037;49.488;9.900;2024-02-16T02:26:44;10.60;70.60
39325;DHT22;25037;49.488;9.900;2024-02-16T02:29:12;10.60;70.60
39325;DHT22;25037;49.488;9.900;2024-02-16T02:31:39;10.50;70.70
39325;DHT22;25037;49.488;9.900;2024-02-16T02:34:07;10.50;70.60
39325;DHT22;25037;49.488;9.900;2024-02-16T02:36:35;10.50;70.70
39325;DHT22;25037;49.488;9.900;2024-02-16T02:39:03;10.50;70.80
39325;DHT22;25037;49.488;9.900;2024-02-16T02:41:30;10.50;70.80
39325;DHT22;25037;49.488;9.900;2024-02-16T02:43:59;10.50;70.90
39325;DHT22;25037;49.488;9.900;2024-02-16T02:46:27;10.50;70.90
39325;DHT22;25037;49.488;9.900;2024-02-16T02:48:55;10.50;70.90
39325;DHT22;25037;49.488;9.900;2024-02-16T02:51:22;10.50;70.90
39325;DHT22;25037;49.488;9.900;2024-02-16T02:53:50;10.40;70.90
39325;DHT22;25037;49.488;9.900;2024-02-16T02:56:18;10.40;71.00
39325;DHT22;25037;49.488;9.900;2024-02-16T02:58:45;10.40;71.00
39325;DHT22;25037;49.488;9.900;2024-02-16T03:01:13;10.30;71.10
39325;DHT22;25037;49.488;9.900;2024-02-16T03:03:40;10.40;71.10
39325;DHT22;25037;49.488;9.900;2024-02-16T03:06:08;10.30;71.10
39325;DHT22;25037;49.488;9.900;2024-02-16T03:08:36;10.30;71.20
39325;DHT22;25037;49.488;9.900;2024-02-16T03:11:04;10.30;71.20
39325;DHT22;25037;49.488;9.900;2024-02-16T03:13:32;10.30;71.20
39325;DHT22;25037;49.488;9.900;2024-02-16T03:16:00;10.30;71.20
39325;DHT22;25037;49.488;9.900;2024-02-16T03:18:31;10.20;71.30
39325;DHT22;25037;49.488;9.900;2024-02-16T03:20:59;10.30;71.40
39325;DHT22;25037;49.488;9.900;2024-02-16T03:23:27;10.20;71.30
39325;DHT22;25037;49.488;9.900;2024-02-16T03:25:54;10.30;71.30
39325;DHT22;25037;49.488;9.900;2024-02-16T03:28:21;10.20;71.30
39325;DHT22;25037;49.488;9.900;2024-02-16T03:30:49;10.20;71.30
39325;DHT22;25037;49.488;9.900;2024-02-16T03:33:17;10.20;71.30
39325;DHT22;25037;49.488;9.900;2024-02-16T03:35:44;10.10;71.30
39325;DHT22;25037;49.488;9.900;2024-02-16T03:38:12;10.10;71.40
39325;DHT22;25037;49.488;9.900;2024-02-16T03:40:40;10.10;71.50
39325;DHT22;25037;49.488;9.900;2024-02-16T03:43:08;10.10;71.50
39325;DHT22;25037;49.488;9.900;2024-02-16T03:45:34;10.00;71.50
39325;DHT22;25037;49.488;9.900;2024-02-16T03:48:04;10.00;71.50
39325;DHT22;25037;49.488;9.900;2024-02-16T03:50:32;10.00;71.40
39325;DHT22;25037;49.488;9.900;2024-02-16T03:53:00;10.00;71.50
39325;DHT22;25037;49.488;9.900;2024-02-16T03:55:27;10.00;71.60
39325;DHT22;25037;49.488;9.900;2024-02-16T03:57:55;10.10;71.60
39325;DHT22;25037;49.488;9.900;2024-02-16T04:00:22;10.10;71.60
39325;DHT22;25037;49.488;9.900;2024-02-16T04:02:50;10.10;71.50
39325;DHT22;25037;49.488;9.900;2024-02-16T04:05:17;10.20;71.40
39325;DHT22;25037;49.488;9.900;2024-02-16T04:07:44;10.20;71.40
39325;DHT22;25037;49.488;9.900;2024-02-16T04:10:12;10.20;71.40
39325;DHT22;25037;49.488;9.900;2024-02-16T04:12:42;10.20;71.40
39325;DHT22;25037;49.488;9.900;2024-02-16T04:15:10;10.20;71.40
39325;DHT22;25037;49.488;9.900;2024-02-16T04:17:37;10.10;71.40
39325;DHT22;25037;49.488;9.900;2024-02-16T04:20:05;10.20;71.40
39325;DHT22;25037;49.488;9.900;2024-02-16T04:22:33;10.20;71.40
39325;DHT22;25037;49.488;9.900;2024-02-16T04:25:05;10.10;71.40
39325;DHT22;25037;49.488;9.900;2024-02-16T04:27:32;10.10;71.40
39325;DHT22;25037;49.488;9.900;2024-02-16T04:30:01;10.10;71.40
39325;DHT22;25037;49.488;9.900;2024-02-16T04:32:29;10.00;71.40
39325;DHT22;25037;49.488;9.900;2024-02-16T04:34:56;10.00;71.50
39325;DHT22;25037;49.488;9.900;2024-02-16T04:37:27;10.00;71.60
39325;DHT22;25037;49.488;9.900;2024-02-16T04:39:55;10.00;71.60
39325;DHT22;25037;49.488;9.900;2024-02-16T04:42:22;9.90;71.60
39325;DHT22;25037;49.488;9.900;2024-02-16T04:44:49;9.90;71.70
39325;DHT22;25037;49.488;9.900;2024-02-16T04:47:16;9.80;71.70
39325;DHT22;25037;49.488;9.900;2024-02-16T04:49:44;9.80;71.80
39325;DHT22;25037;49.488;9.900;2024-02-16T04:52:11;9.90;71.90
39325;DHT22;25037;49.488;9.900;2024-02-16T04:54:39;9.90;71.90
39325;DHT22;25037;49.488;9.900;2024-02-16T04:57:08;10.00;71.90
39325;DHT22;25037;49.488;9.900;2024-02-16T04:59:35;10.00;71.80
39325;DHT22;25037;49.488;9.900;2024-02-16T05:02:03;10.10;71.80
39325;DHT22;25037;49.488;9.900;2024-02-16T05:04:30;10.10;71.70
39325;DHT22;25037;49.488;9.900;2024-02-16T05:06:58;10.20;71.70
39325;DHT22;25037;49.488;9.900;2024-02-16T05:09:25;10.20;71.70
39325;DHT22;25037;49.488;9.900;2024-02-16T05:11:53;10.20;71.70
39325;DHT22;25037;49.488;9.900;2024-02-16T05:14:21;10.20;71.70
39325;DHT22;25037;49.488;9.900;2024-02-16T05:16:48;10.20;71.70
39325;DHT22;25037;49.488;9.900;2024-02-16T05:19:18;10.20;71.60
39325;DHT22;25037;49.488;9.900;2024-02-16T05:21:45;10.20;71.70
39325;DHT22;25037;49.488;9.900;2024-02-16T05:24:13;10.20;71.70
39325;DHT22;25037;49.488;9.900;2024-02-16T05:26:40;10.20;71.80
39325;DHT22;25037;49.488;9.900;2024-02-16T05:29:08;10.10;71.80
39325;DHT22;25037;49.488;9.900;2024-02-16T05:31:35;10.10;71.90
39325;DHT22;25037;49.488;9.900;2024-02-16T05:34:06;10.10;72.00
39325;DHT22;25037;49.488;9.900;2024-02-16T05:36:33;10.10;72.20
39325;DHT22;25037;49.488;9.900;2024-02-16T05:39:03;10.00;72.20
39325;DHT22;25037;49.488;9.900;2024-02-16T05:41:48;10.00;72.20
39325;DHT22;25037;49.488;9.900;2024-02-16T05:44:15;10.00;72.20
39325;DHT22;25037;49.488;9.900;2024-02-16T05:46:44;10.00;72.20
39325;DHT22;25037;49.488;9.900;2024-02-16T05:49:12;10.00;72.30
39325;DHT22;25037;49.488;9.900;2024-02-16T05:51:40;10.00;72.30
39325;DHT22;25037;49.488;9.900;2024-02-16T05:54:08;10.10;72.30
39325;DHT22;25037;49.488;9.900;2024-02-16T05:56:35;10.10;72.30
39325;DHT22;25037;49.488;9.900;2024-02-16T05:59:06;10.10;72.30
39325;DHT22;25037;49.488;9.900;2024-02-16T06:01:33;10.10;72.20
39325;DHT22;25037;49.488;9.900;2024-02-16T06:04:01;10.20;72.20
39325;DHT22;25037;49.488;9.900;2024-02-16T06:06:27;10.20;72.20
39325;DHT22;25037;49.488;9.900;2024-02-16T06:08:54;10.10;72.10
39325;DHT22;25037;49.488;9.900;2024-02-16T06:11:22;10.10;72.10
39325;DHT22;25037;49.488;9.900;2024-02-16T06:13:49;10.00;72.10
39325;DHT22;25037;49.488;9.900;2024-02-16T06:16:17;10.00;72.00
39325;DHT22;25037;49.488;9.900;2024-02-16T06:18:44;10.00;72.10
39325;DHT22;25037;49.488;9.900;2024-02-16T06:21:12;9.90;72.10
39325;DHT22;25037;49.488;9.900;2024-02-16T06:23:40;10.00;72.10
39325;DHT22;25037;49.488;9.900;2024-02-16T06:26:07;10.00;72.10
39325;DHT22;25037;49.488;9.900;2024-02-16T06:28:35;9.90;72.10
39325;DHT22;25037;49.488;9.900;2024-02-16T06:31:02;9.90;72.10
39325;DHT22;25037;49.488;9.900;2024-02-16T06:33:30;9.90;72.20
39325;DHT22;25037;49.488;9.900;2024-02-16T06:35:59;9.90;72.20
39325;DHT22;25037;49.488;9.900;2024-02-16T06:38:26;9.90;72.20
39325;DHT22;25037;49.488;9.900;2024-02-16T06:40:53;9.90;72.20
39325;DHT22;25037;49.488;9.900;2024-02-16T06:43:21;9.90;72.20
39325;DHT22;25037;49.488;9.900;2024-02-16T06:45:48;9.90;72.10
39325;DHT22;25037;49.488;9.900;2024-02-16T06:48:15;9.90;72.20
39325;DHT22;25037;49.488;9.900;2024-02-16T06:50:43;9.90;72.10
39325;DHT22;25037;49.488;9.900;2024-02-16T06:53:10;9.90;72.20
39325;DHT22;25037;49.488;9.900;2024-02-16T06:55:37;9.80;72.20
39325;DHT22;25037;49.488;9.900;2024-02-16T06:58:05;9.80;72.10
39325;DHT22;25037;49.488;9.900;2024-02-16T07:00:32;9.80;72.10
39325;DHT22;25037;49.488;9.900;2024-02-16T07:02:59;9.90;72.10
39325;DHT22;25037;49.488;9.900;2024-02-16T07:05:27;9.90;72.10
39325;DHT22;25037;49.488;9.900;2024-02-16T07:07:55;9.90;72.10
39325;DHT22;25037;49.488;9.900;2024-02-16T07:10:22;9.90;72.10
39325;DHT22;25037;49.488;9.900;2024-02-16T07:12:50;9.90;72.10
39325;DHT22;25037;49.488;9.900;2024-02-16T07:15:17;9.90;72.10
39325;DHT22;25037;49.488;9.900;2024-02-16T07:17:45;10.00;72.10
39325;DHT22;25037;49.488;9.900;2024-02-16T07:20:12;10.00;72.10
39325;DHT22;25037;49.488;9.900;2024-02-16T07:22:42;10.00;72.10
39325;DHT22;25037;49.488;9.900;2024-02-16T07:25:11;10.10;72.10
39325;DHT22;25037;49.488;9.900;2024-02-16T07:27:39;10.20;72.10
39325;DHT22;25037;49.488;9.900;2024-02-16T07:30:09;10.20;72.10
39325;DHT22;25037;49.488;9.900;2024-02-16T07:32:38;10.20;72.10
39325;DHT22;25037;49.488;9.900;2024-02-16T07:35:06;10.30;72.00
39325;DHT22;25037;49.488;9.900;2024-02-16T07:37:34;10.30;72.00
39325;DHT22;25037;49.488;9.900;2024-02-16T07:40:01;10.30;72.00
39325;DHT22;25037;49.488;9.900;2024-02-16T07:42:28;10.40;71.90
39325;DHT22;25037;49.488;9.900;2024-02-16T07:44:56;10.40;71.80
39325;DHT22;25037;49.488;9.900;2024-02-16T07:47:23;10.50;71.90
39325;DHT22;25037;49.488;9.900;2024-02-16T07:49:51;10.50;71.90
39325;DHT22;25037;49.488;9.900;2024-02-16T07:52:18;10.60;71.80
39325;DHT22;25037;49.488;9.900;2024-02-16T07:54:45;10.60;71.80
39325;DHT22;25037;49.488;9.900;2024-02-16T07:57:12;10.70;71.80
39325;DHT22;25037;49.488;9.900;2024-02-16T07:59:40;10.80;71.70
39325;DHT22;25037;49.488;9.900;2024-02-16T08:02:07;10.90;71.50
39325;DHT22;25037;49.488;9.900;2024-02-16T08:04:36;11.00;71.40
39325;DHT22;25037;49.488;9.900;2024-02-16T08:07:04;11.10;71.30
39325;DHT22;25037;49.488;9.900;2024-02-16T08:09:46;11.20;71.30
39325;DHT22;25037;49.488;9.900;2024-02-16T08:12:15;11.30;71.20
39325;DHT22;25037;49.488;9.900;2024-02-16T08:14:43;11.50;71.20
39325;DHT22;25037;49.488;9.900;2024-02-16T08:17:12;11.70;71.00
39325;DHT22;25037;49.488;9.900;2024-02-16T08:19:52;12.00;70.70
39325;DHT22;25037;49.488;9.900;2024-02-16T08:22:21;12.30;70.40
39325;DHT22;25037;49.488;9.900;2024-02-16T08:24:48;12.50;70.10
39325;DHT22;25037;49.488;9.900;2024-02-16T08:27:17;12.70;69.90
39325;DHT22;25037;49.488;9.900;2024-02-16T08:29:46;12.80;69.70
39325;DHT22;25037;49.488;9.900;2024-02-16T08:32:19;12.80;69.60
39325;DHT22;25037;49.488;9.900;2024-02-16T08:34:49;12.90;69.50
39325;DHT22;25037;49.488;9.900;2024-02-16T08:37:18;12.90;69.40
39325;DHT22;25037;49.488;9.900;2024-02-16T08:39:47;13.00;69.50
39325;DHT22;25037;49.488;9.900;2024-02-16T08:42:24;13.10;69.40
39325;DHT22;25037;49.488;9.900;2024-02-16T08:44:54;13.30;69.40
39325;DHT22;25037;49.488;9.900;2024-02-16T08:47:22;13.40;69.20
39325;DHT22;25037;49.488;9.900;2024-02-16T08:49:50;13.50;68.90
39325;DHT22;25037;49.488;9.900;2024-02-16T08:52:18;13.80;68.70
39325;DHT22;25037;49.488;9.900;2024-02-16T08:54:49;13.80;68.50
39325;DHT22;25037;49.488;9.900;2024-02-16T08:57:18;13.90;68.40
39325;DHT22;25037;49.488;9.900;2024-02-16T08:59:47;14.10;68.30
39325;DHT22;25037;49.488;9.900;2024-02-16T09:02:15;14.30;68.00
39325;DHT22;25037;49.488;9.900;2024-02-16T09:04:42;14.50;67.70
39325;DHT22;25037;49.488;9.900;2024-02-16T09:07:10;14.70;67.50
39325;DHT22;25037;49.488;9.900;2024-02-16T09:09:38;14.90;67.10
39325;DHT22;25037;49.488;9.900;2024-02-16T09:12:05;15.00;66.80
39325;DHT22;25037;49.488;9.900;2024-02-16T09:14:33;15.20;66.60
39325;DHT22;25037;49.488;9.900;2024-02-16T09:17:00;15.40;66.40
39325;DHT22;25037;49.488;9.900;2024-02-16T09:19:27;15.50;66.20
39325;DHT22;25037;49.488;9.900;2024-02-16T09:21:54;15.70;66.00
39325;DHT22;25037;49.488;9.900;2024-02-16T09:24:24;15.80;65.50
39325;DHT22;25037;49.488;9.900;2024-02-16T09:26:59;15.90;65.30
39325;DHT22;25037;49.488;9.900;2024-02-16T09:29:34;16.00;64.90
39325;DHT22;25037;49.488;9.900;2024-02-16T09:32:02;16.10;64.60
39325;DHT22;25037;49.488;9.900;2024-02-16T09:34:57;16.20;64.40
39325;DHT22;25037;49.488;9.900;2024-02-16T09:37:24;16.20;64.10
39325;DHT22;25037;49.488;9.900;2024-02-16T09:39:50;16.30;64.10
39325;DHT22;25037;49.488;9.900;2024-02-16T09:42:17;16.30;64.00
39325;DHT22;25037;49.488;9.900;2024-02-16T09:44:44;16.30;63.90
39325;DHT22;25037;49.488;9.900;2024-02-16T09:47:13;16.40;63.90
39325;DHT22;25037;49.488;9.900;2024-02-16T09:49:40;16.50;63.70
39325;DHT22;25037;49.488;9.900;2024-02-16T09:52:10;16.50;63.50
39325;DHT22;25037;49.488;9.900;2024-02-16T09:54:40;16.60;63.10
39325;DHT22;25037;49.488;9.900;2024-02-16T09:57:07;16.70;63.10
39325;DHT22;25037;49.488;9.900;2024-02-16T09:59:34;16.70;62.80
39325;DHT22;25037;49.488;9.900;2024-02-16T10:02:03;16.70;62.60
39325;DHT22;25037;49.488;9.900;2024-02-16T10:04:30;16.80;62.50
39325;DHT22;25037;49.488;9.900;2024-02-16T10:07:02;16.90;62.30
39325;DHT22;25037;49.488;9.900;2024-02-16T10:09:35;17.10;62.10
39325;DHT22;25037;49.488;9.900;2024-02-16T10:12:02;17.30;61.80
39325;DHT22;25037;49.488;9.900;2024-02-16T10:14:29;17.40;61.40
39325;DHT22;25037;49.488;9.900;2024-02-16T10:17:02;17.60;61.20
39325;DHT22;25037;49.488;9.900;2024-02-16T10:19:30;17.80;60.80
39325;DHT22;25037;49.488;9.900;2024-02-16T10:22:12;18.00;60.40
39325;DHT22;25037;49.488;9.900;2024-02-16T10:24:40;18.20;60.30
39325;DHT22;25037;49.488;9.900;2024-02-16T10:27:17;18.30;60.10
39325;DHT22;25037;49.488;9.900;2024-02-16T10:29:47;18.50;59.60
39325;DHT22;25037;49.488;9.900;2024-02-16T10:32:18;18.60;59.70
39325;DHT22;25037;49.488;9.900;2024-02-16T10:34:47;18.80;59.70
39325;DHT22;25037;49.488;9.900;2024-02-16T10:37:16;19.00;59.20
39325;DHT22;25037;49.488;9.900;2024-02-16T10:39:44;19.20;59.00
39325;DHT22;25037;49.488;9.900;2024-02-16T10:42:12;19.40;58.20
39325;DHT22;25037;49.488;9.900;2024-02-16T10:44:41;19.50;58.10
39325;DHT22;25037;49.488;9.900;2024-02-16T10:47:09;19.70;57.80
39325;DHT22;25037;49.488;9.900;2024-02-16T10:49:36;19.80;57.70
39325;DHT22;25037;49.488;9.900;2024-02-16T10:52:05;19.90;58.20
39325;DHT22;25037;49.488;9.900;2024-02-16T10:54:34;20.00;57.30
39325;DHT22;25037;49.488;9.900;2024-02-16T10:57:01;20.20;56.20
39325;DHT22;25037;49.488;9.900;2024-02-16T10:59:46;20.30;55.30
39325;DHT22;25037;49.488;9.900;2024-02-16T11:02:14;20.40;54.00
39325;DHT22;25037;49.488;9.900;2024-02-16T11:04:45;20.50;53.80
39325;DHT22;25037;49.488;9.900;2024-02-16T11:07:16;20.60;54.30
39325;DHT22;25037;49.488;9.900;2024-02-16T11:09:44;20.70;53.80
39325;DHT22;25037;49.488;9.900;2024-02-16T11:12:15;20.90;53.20
39325;DHT22;25037;49.488;9.900;2024-02-16T11:14:47;20.90;52.80
39325;DHT22;25037;49.488;9.900;2024-02-16T11:17:23;21.00;52.60
39325;DHT22;25037;49.488;9.900;2024-02-16T11:19:50;21.00;52.40
39325;DHT22;25037;49.488;9.900;2024-02-16T11:22:18;21.00;52.00
39325;DHT22;25037;49.488;9.900;2024-02-16T11:24:47;20.90;51.60
39325;DHT22;25037;49.488;9.900;2024-02-16T11:27:15;20.80;51.30
39325;DHT22;25037;49.488;9.900;2024-02-16T11:29:46;20.70;51.40
39325;DHT22;25037;49.488;9.900;2024-02-16T11:32:13;20.60;51.40
39325;DHT22;25037;49.488;9.900;2024-02-16T11:34:39;20.60;51.50
39325;DHT22;25037;49.488;9.900;2024-02-16T11:37:06;20.40;51.40
39325;DHT22;25037;49.488;9.900;2024-02-16T11:39:33;20.30;51.40
39325;DHT22;25037;49.488;9.900;2024-02-16T11:42:07;20.20;51.60
39325;DHT22;25037;49.488;9.900;2024-02-16T11:44:35;20.20;51.60
39325;DHT22;25037;49.488;9.900;2024-02-16T11:47:03;20.10;51.60
39325;DHT22;25037;49.488;9.900;2024-02-16T11:49:29;20.00;51.50
39325;DHT22;25037;49.488;9.900;2024-02-16T11:51:56;20.00;51.50
39325;DHT22;25037;49.488;9.900;2024-02-16T11:54:25;20.00;51.20
39325;DHT22;25037;49.488;9.900;2024-02-16T11:56:52;20.10;51.20
39325;DHT22;25037;49.488;9.900;2024-02-16T11:59:19;20.20;51.20
39325;DHT22;25037;49.488;9.900;2024-02-16T12:01:53;20.20;51.00
39325;DHT22;25037;49.488;9.900;2024-02-16T12:04:30;20.30;50.70
39325;DHT22;25037;49.488;9.900;2024-02-16T12:07:01;20.30;51.00
39325;DHT22;25037;49.488;9.900;2024-02-16T12:09:31;20.40;50.70
39325;DHT22;25037;49.488;9.900;2024-02-16T12:12:02;20.50;50.30
39325;DHT22;25037;49.488;9.900;2024-02-16T12:14:29;20.70;50.40
39325;DHT22;25037;49.488;9.900;2024-02-16T12:16:57;20.80;50.50
39325;DHT22;25037;49.488;9.900;2024-02-16T12:19:24;20.80;50.40
39325;DHT22;25037;49.488;9.900;2024-02-16T12:21:55;21.00;50.50
39325;DHT22;25037;49.488;9.900;2024-02-16T12:24:25;21.00;50.10
39325;DHT22;25037;49.488;9.900;2024-02-16T12:26:52;21.10;50.10
39325;DHT22;25037;49.488;9.900;2024-02-16T12:29:19;21.20;49.90
39325;DHT22;25037;49.488;9.900;2024-02-16T12:31:46;21.20;49.60
39325;DHT22;25037;49.488;9.900;2024-02-16T12:34:15;21.30;49.30
39325;DHT22;25037;49.488;9.900;2024-02-16T12:36:42;21.30;49.50
39325;DHT22;25037;49.488;9.900;2024-02-16T12:39:13;21.30;49.60
39325;DHT22;25037;49.488;9.900;2024-02-16T12:41:42;21.40;49.50
39325;DHT22;25037;49.488;9.900;2024-02-16T12:44:10;21.40;49.50
39325;DHT22;25037;49.488;9.900;2024-02-16T12:46:37;21.40;49.50
39325;DHT22;25037;49.488;9.900;2024-02-16T12:49:05;21.30;49.60
39325;DHT22;25037;49.488;9.900;2024-02-16T12:51:33;21.30;49.70
39325;DHT22;25037;49.488;9.900;2024-02-16T12:54:00;21.30;49.60
39325;DHT22;25037;49.488;9.900;2024-02-16T12:56:30;21.20;49.60
39325;DHT22;25037;49.488;9.900;2024-02-16T12:58:57;21.10;49.70
39325;DHT22;25037;49.488;9.900;2024-02-16T13:01:26;21.00;49.80
39325;DHT22;25037;49.488;9.900;2024-02-16T13:03:53;20.90;49.80
39325;DHT22;25037;49.488;9.900;2024-02-16T13:06:20;20.80;50.00
39325;DHT22;25037;49.488;9.900;2024-02-16T13:08:52;20.80;50.20
39325;DHT22;25037;49.488;9.900;2024-02-16T13:11:20;20.70;50.30
39325;DHT22;25037;49.488;9.900;2024-02-16T13:13:46;20.70;50.40
39325;DHT22;25037;49.488;9.900;2024-02-16T13:16:13;20.80;50.50
39325;DHT22;25037;49.488;9.900;2024-02-16T13:18:40;20.80;50.40
39325;DHT22;25037;49.488;9.900;2024-02-16T13:21:08;20.80;50.30
39325;DHT22;25037;49.488;9.900;2024-02-16T13:23:34;20.90;50.30
39325;DHT22;25037;49.488;9.900;2024-02-16T13:26:01;21.00;50.30
39325;DHT22;25037;49.488;9.900;2024-02-16T13:28:28;21.00;50.30
39325;DHT22;25037;49.488;9.900;2024-02-16T13:30:54;21.10;50.20
39325;DHT22;25037;49.488;9.900;2024-02-16T13:33:21;21.20;50.10
39325;DHT22;25037;49.488;9.900;2024-02-16T13:35:48;21.30;49.90
39325;DHT22;25037;49.488;9.900;2024-02-16T13:38:15;21.20;49.90
39325;DHT22;25037;49.488;9.900;2024-02-16T13:40:41;21.10;50.00
39325;DHT22;25037;49.488;9.900;2024-02-16T13:43:09;21.00;50.00
39325;DHT22;25037;49.488;9.900;2024-02-16T13:45:48;20.80;50.30
39325;DHT22;25037;49.488;9.900;2024-02-16T13:48:17;20.70;50.30
39325;DHT22;25037;49.488;9.900;2024-02-16T13:50:48;20.60;50.60
39325;DHT22;25037;49.488;9.900;2024-02-16T13:53:16;20.50;50.70
39325;DHT22;25037;49.488;9.900;2024-02-16T13:55:47;20.30;50.90
39325;DHT22;25037;49.488;9.900;2024-02-16T13:58:14;20.20;51.10
39325;DHT22;25037;49.488;9.900;2024-02-16T14:00:41;20.00;51.30
39325;DHT22;25037;49.488;9.900;2024-02-16T14:03:09;20.00;51.40
39325;DHT22;25037;49.488;9.900;2024-02-16T14:05:38;19.90;51.50
39325;DHT22;25037;49.488;9.900;2024-02-16T14:08:05;19.80;51.60
39325;DHT22;25037;49.488;9.900;2024-02-16T14:10:35;19.80;51.70
39325;DHT22;25037;49.488;9.900;2024-02-16T14:13:02;19.70;51.80
39325;DHT22;25037;49.488;9.900;2024-02-16T14:15:29;19.60;51.90
39325;DHT22;25037;49.488;9.900;2024-02-16T14:17:59;19.60;52.00
39325;DHT22;25037;49.488;9.900;2024-02-16T14:20:31;19.50;52.10
39325;DHT22;25037;49.488;9.900;2024-02-16T14:22:57;19.50;52.20
39325;DHT22;25037;49.488;9.900;2024-02-16T14:25:24;19.50;52.20
39325;DHT22;25037;49.488;9.900;2024-02-16T14:27:52;19.50;52.30
39325;DHT22;25037;49.488;9.900;2024-02-16T14:30:18;19.50;52.30
39325;DHT22;25037;49.488;9.900;2024-02-16T14:32:46;19.50;52.20
39325;DHT22;25037;49.488;9.900;2024-02-16T14:35:14;19.50;52.20
39325;DHT22;25037;49.488;9.900;2024-02-16T14:37:41;19.50;52.30
39325;DHT22;25037;49.488;9.900;2024-02-16T14:40:08;19.50;52.40
39325;DHT22;25037;49.488;9.900;2024-02-16T14:42:36;19.50;52.50
39325;DHT22;25037;49.488;9.900;2024-02-16T14:45:05;19.40;52.70
39325;DHT22;25037;49.488;9.900;2024-02-16T14:47:36;19.50;52.70
39325;DHT22;25037;49.488;9.900;2024-02-16T14:50:06;19.40;52.70
39325;DHT22;25037;49.488;9.900;2024-02-16T14:52:34;19.40;52.80
39325;DHT22;25037;49.488;9.900;2024-02-16T14:55:01;19.30;52.90
39325;DHT22;25037;49.488;9.900;2024-02-16T14:57:28;19.30;53.00
39325;DHT22;25037;49.488;9.900;2024-02-16T14:59:54;19.30;53.10
39325;DHT22;25037;49.488;9.900;2024-02-16T15:02:23;19.20;53.30
39325;DHT22;25037;49.488;9.900;2024-02-16T15:04:50;19.20;53.40
39325;DHT22;25037;49.488;9.900;2024-02-16T15:07:19;19.10;53.50
39325;DHT22;25037;49.488;9.900;2024-02-16T15:09:46;19.00;53.70
39325;DHT22;25037;49.488;9.900;2024-02-16T15:12:13;19.00;53.80
39325;DHT22;25037;49.488;9.900;2024-02-16T15:14:40;18.90;53.90
39325;DHT22;25037;49.488;9.900;2024-02-16T15:17:06;18.80;54.00
39325;DHT22;25037;49.488;9.900;2024-02-16T15:19:34;18.80;54.20
39325;DHT22;25037;49.488;9.900;2024-02-16T15:22:01;18.70;54.40
39325;DHT22;25037;49.488;9.900;2024-02-16T15:24:27;18.70;54.50
39325;DHT22;25037;49.488;9.900;2024-02-16T15:26:54;18.60;54.60
39325;DHT22;25037;49.488;9.900;2024-02-16T15:29:21;18.50;54.70
39325;DHT22;25037;49.488;9.900;2024-02-16T15:31:47;18.50;54.80
39325;DHT22;25037;49.488;9.900;2024-02-16T15:34:14;18.40;54.90
39325;DHT22;25037;49.488;9.900;2024-02-16T15:36:42;18.40;55.10
39325;DHT22;25037;49.488;9.900;2024-02-16T15:39:09;18.40;55.30